Time;durP1;ratioP1;P1;durP2;ratioP2;P2;SDS_P1;SDS_P2;PMS_P1;PMS_P2;Temp;Humidity;BMP_temperature;BMP_pressure;BME280_temperature;BME280_humidity;BME280_pressure;Samples;Min_cycle;Max_cycle;Signal;HPM_P1;HPM_P2
2021/09/08 00:02:41;;;;;;;;;;;10.90;99.90;;;;;;8276681;28;19906;-65
2021/09/08 00:06:41;;;;;;;;;;;10.70;99.90;;;;;;8275944;28;19913;-66
2021/09/08 00:10:41;;;;;;;;;;;10.70;99.90;;;;;;8276364;28;19956;-65
2021/09/08 00:14:42;;;;;;;;;;;10.60;99.90;;;;;;8293706;28;19955;-65
2021/09/08 00:18:42;;;;;;;;;;;10.60;99.90;;;;;;8294172;28;19909;-65
2021/09/08 00:22:44;;;;;;;;;;;10.60;99.90;;;;;;8294113;28;19928;-65
2021/09/08 00:26:44;;;;;;;;;;;10.60;99.90;;;;;;8293538;28;19956;-65
2021/09/08 00:30:44;;;;;;;;;;;10.60;99.90;;;;;;8298033;28;19905;-65
2021/09/08 00:34:45;;;;;;;;;;;10.50;99.90;;;;;;8304632;28;19906;-65
2021/09/08 00:38:45;;;;;;;;;;;10.50;99.90;;;;;;8305003;28;19917;-65
2021/09/08 00:42:46;;;;;;;;;;;10.40;99.90;;;;;;8304151;28;19909;-65
2021/09/08 00:46:46;;;;;;;;;;;10.40;99.90;;;;;;8304087;28;19941;-65
2021/09/08 00:50:48;;;;;;;;;;;10.40;99.90;;;;;;8304024;28;19921;-65
2021/09/08 00:54:50;;;;;;;;;;;10.20;99.90;;;;;;8304122;28;19909;-65
2021/09/08 00:58:50;;;;;;;;;;;10.20;99.90;;;;;;8304243;28;19909;-65
2021/09/08 01:02:52;;;;;;;;;;;10.00;99.90;;;;;;8286593;28;19905;-65
2021/09/08 01:06:56;;;;;;;;;;;9.90;99.90;;;;;;8303501;28;20008;-65
2021/09/08 01:10:57;;;;;;;;;;;9.90;99.90;;;;;;8303899;28;19912;-65
2021/09/08 01:14:58;;;;;;;;;;;9.90;99.90;;;;;;8285884;28;19905;-65
2021/09/08 01:18:58;;;;;;;;;;;9.90;99.90;;;;;;8303852;28;19957;-65
2021/09/08 01:22:59;;;;;;;;;;;10.00;99.90;;;;;;8303844;28;19944;-65
2021/09/08 01:27:00;;;;;;;;;;;9.80;99.90;;;;;;8303616;28;20000;-65
2021/09/08 01:31:01;;;;;;;;;;;10.00;99.90;;;;;;8286056;28;19997;-65
2021/09/08 01:35:02;;;;;;;;;;;9.90;99.90;;;;;;8303367;28;19949;-65
2021/09/08 01:39:03;;;;;;;;;;;9.90;99.90;;;;;;8285933;28;20365;-65
2021/09/08 01:43:03;;;;;;;;;;;9.60;99.90;;;;;;8281339;28;19905;-65
2021/09/08 01:47:04;;;;;;;;;;;9.60;99.90;;;;;;8297991;28;19905;-65
2021/09/08 01:51:04;;;;;;;;;;;9.50;99.90;;;;;;8280497;28;19920;-65
2021/09/08 01:55:06;;;;;;;;;;;9.40;99.90;;;;;;8297724;28;19905;-65
2021/09/08 01:59:06;;;;;;;;;;;9.40;99.90;;;;;;8297965;28;19913;-65
2021/09/08 02:03:07;;;;;;;;;;;9.30;99.90;;;;;;8297589;28;20149;-65
2021/09/08 02:07:07;;;;;;;;;;;9.40;99.90;;;;;;8297313;28;19905;-65
2021/09/08 02:11:07;;;;;;;;;;;9.50;99.90;;;;;;8297389;28;19905;-65
2021/09/08 02:15:08;;;;;;;;;;;9.50;99.90;;;;;;8279530;28;19905;-65
2021/09/08 02:19:09;;;;;;;;;;;9.40;99.90;;;;;;8296229;28;19944;-64
2021/09/08 02:23:09;;;;;;;;;;;9.40;99.90;;;;;;8279495;28;19909;-64
2021/09/08 02:27:10;;;;;;;;;;;9.30;99.90;;;;;;8296722;28;19905;-65
2021/09/08 02:31:11;;;;;;;;;;;9.10;99.90;;;;;;8297019;28;19905;-65
2021/09/08 02:35:11;;;;;;;;;;;8.90;99.90;;;;;;8296634;28;20284;-65
2021/09/08 02:39:12;;;;;;;;;;;8.80;99.90;;;;;;8296564;28;20297;-65
2021/09/08 02:43:12;;;;;;;;;;;8.70;99.90;;;;;;8294135;28;19916;-65
2021/09/08 02:47:13;;;;;;;;;;;8.90;99.90;;;;;;8292784;28;19966;-65
2021/09/08 02:51:13;;;;;;;;;;;8.80;99.90;;;;;;8292762;28;19960;-65
2021/09/08 02:55:14;;;;;;;;;;;9.20;99.90;;;;;;8293030;28;19910;-65
2021/09/08 02:59:14;;;;;;;;;;;8.90;99.90;;;;;;8295483;28;20396;-65
2021/09/08 03:03:15;;;;;;;;;;;8.80;99.90;;;;;;8296013;28;19905;-65
2021/09/08 03:07:15;;;;;;;;;;;8.80;99.90;;;;;;8295488;28;19905;-65
2021/09/08 03:11:16;;;;;;;;;;;8.80;99.90;;;;;;8295603;28;20000;-65
2021/09/08 03:15:16;;;;;;;;;;;8.70;99.90;;;;;;8295278;28;19959;-65
2021/09/08 03:19:17;;;;;;;;;;;8.60;99.90;;;;;;8295665;28;19906;-65
2021/09/08 03:23:17;;;;;;;;;;;8.80;99.90;;;;;;8277809;28;19905;-65
2021/09/08 03:27:18;;;;;;;;;;;8.90;99.90;;;;;;8295314;28;19905;-65
2021/09/08 03:31:18;;;;;;;;;;;8.90;99.90;;;;;;8295468;28;19905;-65
2021/09/08 03:35:20;;;;;;;;;;;8.70;99.90;;;;;;8277604;28;19905;-65
2021/09/08 03:39:20;;;;;;;;;;;8.50;99.90;;;;;;8295047;28;19913;-65
2021/09/08 03:43:21;;;;;;;;;;;8.60;99.90;;;;;;8290792;28;21287;-65
2021/09/08 03:47:21;;;;;;;;;;;8.70;99.90;;;;;;8260326;28;20596;-65
2021/09/08 03:51:22;;;;;;;;;;;8.60;99.90;;;;;;8277104;28;19917;-65
2021/09/08 03:55:22;;;;;;;;;;;8.50;99.90;;;;;;8265535;28;19943;-65
2021/09/08 03:59:23;;;;;;;;;;;8.60;99.90;;;;;;8294201;28;19909;-65
2021/09/08 04:03:23;;;;;;;;;;;8.50;99.90;;;;;;8294213;28;19956;-65
2021/09/08 04:07:26;;;;;;;;;;;8.40;99.90;;;;;;8292270;28;19905;-65
2021/09/08 04:11:27;;;;;;;;;;;8.30;99.90;;;;;;8291957;28;19949;-65
2021/09/08 04:15:27;;;;;;;;;;;8.20;99.90;;;;;;8283380;28;19909;-65
2021/09/08 04:19:28;;;;;;;;;;;8.40;99.90;;;;;;8292971;28;19913;-65
2021/09/08 04:23:28;;;;;;;;;;;8.40;99.90;;;;;;8275636;28;19905;-65
2021/09/08 04:27:29;;;;;;;;;;;8.50;99.90;;;;;;8293333;28;19909;-65
2021/09/08 04:31:29;;;;;;;;;;;8.40;99.90;;;;;;8293597;28;19913;-65
2021/09/08 04:35:30;;;;;;;;;;;8.50;99.90;;;;;;8292467;28;19905;-64
2021/09/08 04:39:30;;;;;;;;;;;8.40;99.90;;;;;;8290771;28;19917;-64
2021/09/08 04:43:31;;;;;;;;;;;8.30;99.90;;;;;;8292430;28;20296;-65
2021/09/08 04:47:31;;;;;;;;;;;8.20;99.90;;;;;;8292916;28;20008;-65
2021/09/08 04:51:32;;;;;;;;;;;8.00;99.90;;;;;;8290522;28;19913;-65
2021/09/08 04:55:33;;;;;;;;;;;8.00;99.90;;;;;;8289599;28;20377;-65
2021/09/08 04:59:34;;;;;;;;;;;8.10;99.90;;;;;;8289970;28;19935;-65
2021/09/08 05:03:34;;;;;;;;;;;8.10;99.90;;;;;;8290072;28;19905;-65
2021/09/08 05:07:35;;;;;;;;;;;8.20;99.90;;;;;;8292660;28;19913;-65
2021/09/08 05:11:35;;;;;;;;;;;8.30;99.90;;;;;;8292835;28;19905;-65
2021/09/08 05:15:36;;;;;;;;;;;8.60;99.90;;;;;;8292068;28;19928;-65
2021/09/08 05:19:36;;;;;;;;;;;8.90;99.90;;;;;;8280191;28;19906;-65
2021/09/08 05:23:38;;;;;;;;;;;8.90;99.90;;;;;;8299111;28;19948;-65
2021/09/08 05:27:38;;;;;;;;;;;8.90;99.90;;;;;;8298769;28;20025;-65
2021/09/08 05:31:39;;;;;;;;;;;9.00;99.90;;;;;;8298547;28;20027;-65
2021/09/08 05:35:39;;;;;;;;;;;9.10;99.90;;;;;;8298264;28;20254;-65
2021/09/08 05:39:40;;;;;;;;;;;9.10;99.90;;;;;;8280967;28;20369;-65
2021/09/08 05:43:40;;;;;;;;;;;9.20;99.90;;;;;;8298659;28;19921;-65
2021/09/08 05:47:41;;;;;;;;;;;9.60;99.90;;;;;;8281029;28;19952;-65
2021/09/08 05:51:41;;;;;;;;;;;9.90;99.90;;;;;;8297436;28;19913;-65
2021/09/08 05:55:42;;;;;;;;;;;10.20;99.90;;;;;;8297671;28;19909;-65
2021/09/08 05:59:42;;;;;;;;;;;10.40;99.90;;;;;;8297908;28;20389;-65
2021/09/08 06:03:42;;;;;;;;;;;10.60;99.90;;;;;;8297460;28;20650;-65
2021/09/08 06:07:43;;;;;;;;;;;10.60;99.90;;;;;;8297236;28;20428;-65
2021/09/08 06:11:43;;;;;;;;;;;10.60;99.90;;;;;;8279875;28;19915;-65
2021/09/08 06:15:44;;;;;;;;;;;10.80;99.90;;;;;;8297239;28;19913;-65
2021/09/08 06:19:44;;;;;;;;;;;11.00;99.90;;;;;;8297206;28;19905;-65
2021/09/08 06:23:45;;;;;;;;;;;11.30;99.90;;;;;;8297086;28;20313;-65
2021/09/08 06:27:45;;;;;;;;;;;11.50;99.90;;;;;;8296524;28;19912;-65
2021/09/08 06:31:46;;;;;;;;;;;11.80;99.90;;;;;;8296714;28;19949;-65
2021/09/08 06:35:46;;;;;;;;;;;12.10;99.90;;;;;;8295847;28;20311;-65
2021/09/08 06:39:47;;;;;;;;;;;12.30;99.90;;;;;;8295366;28;20390;-65
2021/09/08 06:43:49;;;;;;;;;;;12.50;99.90;;;;;;8296013;28;19909;-65
2021/09/08 06:47:49;;;;;;;;;;;12.80;99.90;;;;;;8294828;28;19917;-65
2021/09/08 06:51:50;;;;;;;;;;;13.00;99.90;;;;;;8277006;28;19953;-66
2021/09/08 06:55:51;;;;;;;;;;;13.20;99.90;;;;;;8294472;28;20298;-66
2021/09/08 06:59:51;;;;;;;;;;;13.50;99.90;;;;;;8276713;28;20309;-66
2021/09/08 07:03:52;;;;;;;;;;;13.70;99.90;;;;;;8293889;28;19967;-66
2021/09/08 07:07:52;;;;;;;;;;;13.90;99.90;;;;;;8294239;28;19917;-65
2021/09/08 07:11:52;;;;;;;;;;;14.00;99.90;;;;;;8294867;28;19909;-65
2021/09/08 07:15:53;;;;;;;;;;;14.20;99.90;;;;;;8294380;28;20000;-65
2021/09/08 07:19:53;;;;;;;;;;;14.40;99.90;;;;;;8293981;28;19928;-65
2021/09/08 07:23:54;;;;;;;;;;;14.90;99.90;;;;;;8275550;28;20397;-65
2021/09/08 07:27:54;;;;;;;;;;;15.40;99.90;;;;;;8293306;28;19914;-65
2021/09/08 07:31:55;;;;;;;;;;;15.50;99.90;;;;;;8293278;28;19912;-65
2021/09/08 07:35:55;;;;;;;;;;;15.50;99.90;;;;;;8292728;28;19909;-65
2021/09/08 07:39:56;;;;;;;;;;;15.70;99.90;;;;;;8292519;28;19909;-65
2021/09/08 07:43:56;;;;;;;;;;;15.90;99.90;;;;;;8293145;28;19905;-65
2021/09/08 07:47:57;;;;;;;;;;;16.10;99.90;;;;;;8292519;28;19905;-65
2021/09/08 07:51:57;;;;;;;;;;;16.20;99.90;;;;;;8293975;28;19971;-65
2021/09/08 07:55:58;;;;;;;;;;;16.40;99.90;;;;;;8292699;28;19913;-65
2021/09/08 07:59:58;;;;;;;;;;;16.60;99.90;;;;;;8294364;28;19905;-65
2021/09/08 08:03:59;;;;;;;;;;;16.90;99.90;;;;;;8293957;28;19955;-66
2021/09/08 08:08:00;;;;;;;;;;;17.10;99.90;;;;;;8293582;28;19913;-65
2021/09/08 08:12:00;;;;;;;;;;;17.30;99.90;;;;;;8275756;28;19960;-65
2021/09/08 08:16:01;;;;;;;;;;;17.50;99.90;;;;;;8292754;28;19968;-65
2021/09/08 08:20:04;;;;;;;;;;;17.80;99.90;;;;;;8293809;28;20365;-65
2021/09/08 08:24:04;;;;;;;;;;;17.90;99.90;;;;;;8293881;28;19943;-66
2021/09/08 08:28:05;;;;;;;;;;;18.10;99.90;;;;;;8275848;28;19913;-65
2021/09/08 08:32:05;;;;;;;;;;;18.20;99.90;;;;;;8292604;28;20320;-65
2021/09/08 08:36:06;;;;;;;;;;;18.20;99.90;;;;;;8293328;28;19964;-65
2021/09/08 08:40:08;;;;;;;;;;;18.30;99.90;;;;;;8293379;28;19912;-66
2021/09/08 08:44:09;;;;;;;;;;;18.60;99.90;;;;;;8291958;28;19909;-65
2021/09/08 08:48:10;;;;;;;;;;;18.80;99.90;;;;;;8292262;28;19944;-65
2021/09/08 08:52:11;;;;;;;;;;;19.00;99.90;;;;;;8278002;28;20266;-65
2021/09/08 08:56:12;;;;;;;;;;;19.00;99.90;;;;;;8297600;28;20328;-65
2021/09/08 09:00:13;;;;;;;;;;;19.50;99.90;;;;;;8299818;28;20008;-65
2021/09/08 09:04:14;;;;;;;;;;;19.60;99.90;;;;;;8299326;28;19909;-66
2021/09/08 09:08:16;;;;;;;;;;;19.90;99.90;;;;;;8299554;28;19913;-66
2021/09/08 09:12:17;;;;;;;;;;;20.00;99.90;;;;;;8299330;28;19906;-66
2021/09/08 09:16:17;;;;;;;;;;;20.20;99.90;;;;;;8281283;28;20016;-65
2021/09/08 09:20:22;;;;;;;;;;;20.60;99.90;;;;;;8299050;28;19910;-65
2021/09/08 09:24:27;;;;;;;;;;;20.60;99.90;;;;;;8281642;28;19915;-65
2021/09/08 09:28:29;;;;;;;;;;;20.80;99.90;;;;;;8299151;28;19905;-66
2021/09/08 09:32:34;;;;;;;;;;;20.90;99.90;;;;;;8281392;28;19960;-66
2021/09/08 09:36:35;;;;;;;;;;;21.00;99.90;;;;;;8298762;28;20270;-66
2021/09/08 09:40:36;;;;;;;;;;;21.10;99.90;;;;;;8298845;28;19921;-65
2021/09/08 09:44:37;;;;;;;;;;;21.30;99.90;;;;;;8298288;28;20344;-65
2021/09/08 09:48:38;;;;;;;;;;;21.50;99.90;;;;;;8297470;28;19918;-66
2021/09/08 09:52:38;;;;;;;;;;;21.80;99.90;;;;;;8297838;28;19936;-65
2021/09/08 09:56:39;;;;;;;;;;;22.20;99.90;;;;;;8297807;28;19909;-65
2021/09/08 10:00:41;;;;;;;;;;;22.50;99.90;;;;;;8297782;28;19968;-65
2021/09/08 10:04:41;;;;;;;;;;;22.70;99.90;;;;;;8295648;28;20055;-66
2021/09/08 10:08:45;;;;;;;;;;;22.90;99.90;;;;;;8296957;28;19989;-65
2021/09/08 10:12:46;;;;;;;;;;;23.00;99.90;;;;;;8294297;28;20434;-65
2021/09/08 10:16:47;;;;;;;;;;;23.20;99.90;;;;;;8296112;28;19909;-65
2021/09/08 10:20:51;;;;;;;;;;;23.20;99.90;;;;;;8296472;28;20058;-65
2021/09/08 10:24:52;;;;;;;;;;;23.20;99.90;;;;;;8295858;28;19906;-66
2021/09/08 10:28:53;;;;;;;;;;;23.40;99.90;;;;;;8296219;28;20015;-65
2021/09/08 10:32:54;;;;;;;;;;;23.50;99.90;;;;;;8294405;28;19914;-65
2021/09/08 10:36:54;;;;;;;;;;;23.60;99.90;;;;;;8295425;28;19909;-65
2021/09/08 10:40:55;;;;;;;;;;;23.90;99.90;;;;;;8296648;28;19906;-66
2021/09/08 10:44:56;;;;;;;;;;;24.20;99.90;;;;;;8278521;28;19913;-66
2021/09/08 10:48:56;;;;;;;;;;;24.60;99.90;;;;;;8295243;28;19909;-65
2021/09/08 10:52:57;;;;;;;;;;;24.80;99.90;;;;;;8295303;28;19939;-65
2021/09/08 10:56:58;;;;;;;;;;;25.10;99.90;;;;;;8295092;28;20008;-65
2021/09/08 11:00:59;;;;;;;;;;;26.30;99.90;;;;;;8295778;28;19905;-66
2021/09/08 11:04:59;;;;;;;;;;;30.30;99.90;;;;;;8295651;28;19911;-66
2021/09/08 11:09:01;;;;;;;;;;;33.10;83.10;;;;;;8296008;28;19995;-66
2021/09/08 11:13:02;;;;;;;;;;;;;;;;;;8295357;28;19909;-64
2021/09/08 11:17:03;;;;;;;;;;;36.20;63.60;;;;;;8295024;28;19909;-64
2021/09/08 11:21:04;;;;;;;;;;;38.30;54.50;;;;;;8277763;28;19955;-64
2021/09/08 11:25:06;;;;;;;;;;;39.00;49.90;;;;;;8277848;28;19905;-64
2021/09/08 11:29:08;;;;;;;;;;;40.00;46.10;;;;;;8294761;28;19912;-64
2021/09/08 11:33:09;;;;;;;;;;;40.10;44.70;;;;;;8294895;28;19909;-64
2021/09/08 11:37:10;;;;;;;;;;;39.40;46.40;;;;;;8293732;28;19913;-64
2021/09/08 11:41:11;;;;;;;;;;;40.50;44.50;;;;;;8294870;28;19997;-64
2021/09/08 11:45:24;;;;;;;;;;;41.60;43.00;;;;;;8294500;28;20354;-64
2021/09/08 11:49:24;;;;;;;;;;;42.00;41.20;;;;;;8294176;28;19931;-64
2021/09/08 11:53:25;;;;;;;;;;;42.30;37.60;;;;;;8276723;28;19917;-64
2021/09/08 11:57:25;;;;;;;;;;;42.60;38.70;;;;;;8294003;28;19909;-64
2021/09/08 12:01:31;;;;;;;;;;;43.00;37.60;;;;;;8294026;28;20288;-64
2021/09/08 12:05:32;;;;;;;;;;;42.30;37.70;;;;;;8293621;28;19964;-64
2021/09/08 12:09:45;;;;;;;;;;;42.60;36.20;;;;;;8276879;28;19999;-64
2021/09/08 12:13:46;;;;;;;;;;;43.20;36.00;;;;;;8287584;28;19956;-64
2021/09/08 12:17:46;;;;;;;;;;;43.50;35.00;;;;;;8289448;28;20362;-64
2021/09/08 12:21:46;;;;;;;;;;;44.20;33.50;;;;;;8293102;28;19912;-64
2021/09/08 12:26:03;;;;;;;;;;;44.60;34.30;;;;;;8292239;28;19912;-64
2021/09/08 12:30:08;;;;;;;;;;;44.20;32.80;;;;;;8290580;28;19913;-64
2021/09/08 12:34:08;;;;;;;;;;;44.20;32.50;;;;;;8293474;28;20373;-64
2021/09/08 12:38:26;;;;;;;;;;;43.90;35.30;;;;;;8274645;28;19967;-64
2021/09/08 12:42:27;;;;;;;;;;;45.60;32.20;;;;;;8290113;28;19905;-64
2021/09/08 12:46:45;;;;;;;;;;;46.90;30.20;;;;;;8292129;28;20388;-65
2021/09/08 12:50:46;;;;;;;;;;;46.50;30.90;;;;;;8291942;28;19917;-64
2021/09/08 12:54:47;;;;;;;;;;;45.80;31.00;;;;;;8292550;28;19905;-64
2021/09/08 12:58:48;;;;;;;;;;;45.70;30.70;;;;;;8292218;28;19948;-64
2021/09/08 13:02:48;;;;;;;;;;;46.10;30.00;;;;;;8274531;28;20289;-64
2021/09/08 13:06:49;;;;;;;;;;;44.10;32.10;;;;;;8292095;28;20384;-64
2021/09/08 13:10:49;;;;;;;;;;;45.20;30.80;;;;;;8292101;28;19909;-64
2021/09/08 13:14:51;;;;;;;;;;;44.80;31.10;;;;;;8274373;28;19909;-64
2021/09/08 13:18:51;;;;;;;;;;;45.30;31.60;;;;;;8291706;28;19913;-65
2021/09/08 13:22:52;;;;;;;;;;;46.30;30.80;;;;;;8290388;28;20389;-65
2021/09/08 13:26:52;;;;;;;;;;;46.70;29.90;;;;;;8290994;28;19917;-64
2021/09/08 13:30:53;;;;;;;;;;;47.70;28.60;;;;;;8274664;28;19914;-64
2021/09/08 13:34:53;;;;;;;;;;;47.20;28.00;;;;;;8273493;28;19913;-66
2021/09/08 13:38:58;;;;;;;;;;;48.00;28.60;;;;;;8293281;28;19937;-65
2021/09/08 13:42:59;;;;;;;;;;;47.60;28.50;;;;;;8277908;28;19917;-65
2021/09/08 13:46:59;;;;;;;;;;;48.30;28.80;;;;;;8296746;28;20369;-66
2021/09/08 13:51:00;;;;;;;;;;;48.50;28.60;;;;;;8279217;28;19935;-66
2021/09/08 13:55:01;;;;;;;;;;;46.70;29.10;;;;;;8296844;28;19956;-66
2021/09/08 13:59:01;;;;;;;;;;;45.10;30.00;;;;;;8279632;28;19913;-65
2021/09/08 14:03:02;;;;;;;;;;;46.20;29.50;;;;;;8296105;28;20292;-66
2021/09/08 14:07:04;;;;;;;;;;;46.30;30.00;;;;;;8278688;28;19909;-65
2021/09/08 14:11:04;;;;;;;;;;;47.70;29.00;;;;;;8295091;28;20078;-65
2021/09/08 14:15:05;;;;;;;;;;;48.30;28.60;;;;;;8294717;28;19909;-64
2021/09/08 14:19:05;;;;;;;;;;;49.10;27.90;;;;;;8293221;28;20344;-64
2021/09/08 14:23:06;;;;;;;;;;;49.30;28.00;;;;;;8293773;28;19913;-64
2021/09/08 14:27:07;;;;;;;;;;;48.00;28.30;;;;;;8292341;28;20266;-64
2021/09/08 14:31:07;;;;;;;;;;;46.50;28.90;;;;;;8295053;28;19956;-64
2021/09/08 14:35:08;;;;;;;;;;;46.40;29.10;;;;;;8295261;28;19909;-64
2021/09/08 14:39:08;;;;;;;;;;;46.30;29.40;;;;;;8293721;28;19913;-64
2021/09/08 14:43:09;;;;;;;;;;;45.40;29.40;;;;;;8294052;28;19910;-64
2021/09/08 14:47:09;;;;;;;;;;;44.00;31.90;;;;;;8276326;28;19906;-64
2021/09/08 14:51:10;;;;;;;;;;;42.90;33.00;;;;;;8295050;28;20258;-64
2021/09/08 14:55:11;;;;;;;;;;;42.60;34.10;;;;;;8296172;28;20390;-64
2021/09/08 14:59:11;;;;;;;;;;;44.10;32.70;;;;;;8296293;28;19909;-64
2021/09/08 15:03:12;;;;;;;;;;;44.50;32.50;;;;;;8296039;28;19913;-64
2021/09/08 15:07:12;;;;;;;;;;;45.50;31.70;;;;;;8292464;28;20393;-64
2021/09/08 15:11:13;;;;;;;;;;;45.70;30.40;;;;;;8287210;28;19916;-64
2021/09/08 15:15:14;;;;;;;;;;;45.20;31.80;;;;;;8260948;28;19964;-64
2021/09/08 15:19:15;;;;;;;;;;;44.00;32.50;;;;;;8289670;28;19918;-64
2021/09/08 15:23:15;;;;;;;;;;;42.30;33.40;;;;;;8294047;28;20361;-64
2021/09/08 15:27:15;;;;;;;;;;;40.10;36.80;;;;;;8293284;28;19909;-64
2021/09/08 15:31:16;;;;;;;;;;;39.00;38.00;;;;;;8293667;28;19944;-64
2021/09/08 15:35:16;;;;;;;;;;;38.50;39.00;;;;;;8276738;28;19916;-64
2021/09/08 15:39:17;;;;;;;;;;;38.40;39.20;;;;;;8294278;28;19913;-64
2021/09/08 15:43:18;;;;;;;;;;;38.20;38.60;;;;;;8294397;28;20294;-64
2021/09/08 15:47:19;;;;;;;;;;;38.10;40.00;;;;;;8293532;28;19909;-64
2021/09/08 15:51:19;;;;;;;;;;;38.20;38.90;;;;;;8292921;28;19917;-64
2021/09/08 15:55:19;;;;;;;;;;;37.90;41.00;;;;;;8293291;28;20403;-64
2021/09/08 15:59:20;;;;;;;;;;;38.20;40.50;;;;;;8294152;28;19909;-64
2021/09/08 16:03:21;;;;;;;;;;;38.80;39.50;;;;;;8292914;28;19909;-64
2021/09/08 16:07:21;;;;;;;;;;;38.80;38.50;;;;;;8293347;28;20309;-64
2021/09/08 16:11:27;;;;;;;;;;;;;;;;;;8292825;28;19909;-64
2021/09/08 16:15:28;;;;;;;;;;;40.30;37.50;;;;;;8275766;28;20028;-65
2021/09/08 16:19:28;;;;;;;;;;;40.30;37.80;;;;;;8293700;28;19972;-65
2021/09/08 16:23:29;;;;;;;;;;;40.30;37.80;;;;;;8275961;28;19913;-65
2021/09/08 16:27:30;;;;;;;;;;;40.10;37.60;;;;;;8293008;28;19913;-65
2021/09/08 16:31:31;;;;;;;;;;;40.00;37.60;;;;;;8292747;28;19909;-64
2021/09/08 16:35:31;;;;;;;;;;;40.10;38.70;;;;;;8292930;28;20390;-65
2021/09/08 16:39:31;;;;;;;;;;;40.00;38.70;;;;;;8293655;28;19909;-64
2021/09/08 16:43:32;;;;;;;;;;;39.60;38.70;;;;;;8275294;28;19936;-64
2021/09/08 16:47:32;;;;;;;;;;;38.70;40.60;;;;;;8292894;28;20325;-64
2021/09/08 16:51:33;;;;;;;;;;;;;;;;;;8292572;28;20000;-64
2021/09/08 16:55:34;;;;;;;;;;;34.70;45.90;;;;;;8274954;28;19960;-64
2021/09/08 16:59:35;;;;;;;;;;;31.90;52.20;;;;;;8291118;28;19996;-64
2021/09/08 17:03:35;;;;;;;;;;;29.80;57.00;;;;;;8290260;28;19917;-65
2021/09/08 17:07:36;;;;;;;;;;;27.90;69.40;;;;;;8289888;28;19928;-66
2021/09/08 17:11:37;;;;;;;;;;;;;;;;;;8291652;28;20044;-65
2021/09/08 17:15:38;;;;;;;;;;;;;;;;;;8298155;28;19919;-65
2021/09/08 17:19:39;;;;;;;;;;;;;;;;;;8299174;28;19913;-65
2021/09/08 17:23:40;;;;;;;;;;;;;;;;;;8298340;28;19913;-66
2021/09/08 17:27:40;;;;;;;;;;;;;;;;;;8281184;28;19909;-66
2021/09/08 17:31:41;;;;;;;;;;;;;;;;;;8297598;28;20084;-65
2021/09/08 17:35:42;;;;;;;;;;;;;;;;;;8280405;28;20371;-65
2021/09/08 17:39:44;;;;;;;;;;;;;;;;;;8298258;28;19916;-66
2021/09/08 17:43:45;;;;;;;;;;;;;;;;;;8297774;28;19913;-66
2021/09/08 17:47:46;;;;;;;;;;;;;;;;;;8280226;28;19924;-66
2021/09/08 17:51:47;;;;;;;;;;;;;;;;;;8279815;28;19921;-65
2021/09/08 17:55:50;;;;;;;;;;;;;;;;;;8297736;28;19909;-66
2021/09/08 17:59:51;;;;;;;;;;;;;;;;;;8280498;28;20374;-65
2021/09/08 18:03:51;;;;;;;;;;;21.60;99.90;;;;;;8297695;28;19921;-65
2021/09/08 18:07:51;;;;;;;;;;;21.40;99.90;;;;;;8297077;28;19909;-66
2021/09/08 18:11:52;;;;;;;;;;;20.90;99.90;;;;;;8297127;28;19996;-65
2021/09/08 18:15:52;;;;;;;;;;;20.90;99.90;;;;;;8297049;28;20309;-65
2021/09/08 18:19:53;;;;;;;;;;;20.90;99.90;;;;;;8296982;28;19905;-66
2021/09/08 18:23:53;;;;;;;;;;;20.80;99.90;;;;;;8295689;28;19993;-65
2021/09/08 18:27:54;;;;;;;;;;;20.70;99.90;;;;;;8279540;28;19916;-65
2021/09/08 18:31:55;;;;;;;;;;;20.50;99.90;;;;;;8297364;28;19906;-65
2021/09/08 18:35:56;;;;;;;;;;;20.20;99.90;;;;;;8296566;28;19984;-66
2021/09/08 18:39:56;;;;;;;;;;;19.90;99.90;;;;;;8296704;28;19909;-65
2021/09/08 18:43:57;;;;;;;;;;;19.70;99.90;;;;;;8296034;28;19917;-65
2021/09/08 18:47:57;;;;;;;;;;;19.30;99.90;;;;;;8293296;28;20381;-66
2021/09/08 18:51:58;;;;;;;;;;;19.10;99.90;;;;;;8274943;28;20004;-66
2021/09/08 18:55:58;;;;;;;;;;;18.90;99.90;;;;;;8295072;28;19941;-65
2021/09/08 18:59:59;;;;;;;;;;;19.10;99.90;;;;;;8288347;28;19909;-65
2021/09/08 19:03:59;;;;;;;;;;;18.90;99.90;;;;;;8278469;28;19913;-65
2021/09/08 19:08:00;;;;;;;;;;;18.90;99.90;;;;;;8277381;28;19944;-66
2021/09/08 19:12:01;;;;;;;;;;;18.60;99.90;;;;;;8265309;28;19965;-65
2021/09/08 19:16:02;;;;;;;;;;;18.30;99.90;;;;;;8266705;28;20004;-66
2021/09/08 19:20:03;;;;;;;;;;;18.00;99.90;;;;;;8266414;28;19918;-65
2021/09/08 19:24:04;;;;;;;;;;;17.80;99.90;;;;;;8283015;28;19923;-65
2021/09/08 19:28:05;;;;;;;;;;;17.70;99.90;;;;;;8255311;28;19957;-65
2021/09/08 19:32:05;;;;;;;;;;;17.60;99.90;;;;;;8260008;28;20000;-65
2021/09/08 19:36:11;;;;;;;;;;;17.50;99.90;;;;;;8259459;28;19913;-66
2021/09/08 19:40:12;;;;;;;;;;;17.40;99.90;;;;;;8272490;28;19937;-65
2021/09/08 19:44:13;;;;;;;;;;;17.30;99.90;;;;;;8287698;28;20007;-66
2021/09/08 19:48:13;;;;;;;;;;;17.20;99.90;;;;;;8289046;28;19914;-65
2021/09/08 19:52:14;;;;;;;;;;;17.10;99.90;;;;;;8271952;28;20317;-66
2021/09/08 19:56:15;;;;;;;;;;;17.00;99.90;;;;;;8271135;28;20263;-66
2021/09/08 20:00:17;;;;;;;;;;;17.20;99.90;;;;;;8286940;28;19917;-65
2021/09/08 20:04:18;;;;;;;;;;;17.10;99.90;;;;;;8271630;28;20492;-65
2021/09/08 20:08:18;;;;;;;;;;;16.90;99.90;;;;;;8289780;28;19957;-65
2021/09/08 20:12:19;;;;;;;;;;;16.80;99.90;;;;;;8288793;28;19905;-65
2021/09/08 20:16:20;;;;;;;;;;;16.70;99.90;;;;;;8279587;28;19949;-66
2021/09/08 20:20:21;;;;;;;;;;;16.70;99.90;;;;;;8290225;28;19945;-66
2021/09/08 20:24:21;;;;;;;;;;;16.80;99.90;;;;;;8290369;28;19910;-66
2021/09/08 20:28:23;;;;;;;;;;;16.40;99.90;;;;;;8290045;28;19913;-65
2021/09/08 20:32:23;;;;;;;;;;;16.30;99.90;;;;;;8269751;28;20276;-65
2021/09/08 20:36:24;;;;;;;;;;;16.20;99.90;;;;;;8279541;28;19922;-65
2021/09/08 20:40:24;;;;;;;;;;;15.90;99.90;;;;;;8291385;28;19918;-65
2021/09/08 20:44:25;;;;;;;;;;;15.90;99.90;;;;;;8293357;28;20043;-65
2021/09/08 20:48:25;;;;;;;;;;;15.80;99.90;;;;;;8295934;28;20012;-65
2021/09/08 20:52:26;;;;;;;;;;;15.90;99.90;;;;;;8281986;28;19920;-66
2021/09/08 20:56:27;;;;;;;;;;;15.70;99.90;;;;;;8299848;28;19924;-65
2021/09/08 21:00:27;;;;;;;;;;;15.60;99.90;;;;;;8282228;28;19906;-65
2021/09/08 21:04:28;;;;;;;;;;;15.60;99.90;;;;;;8299724;28;19917;-65
2021/09/08 21:08:28;;;;;;;;;;;15.50;99.90;;;;;;8299880;28;19916;-65
2021/09/08 21:12:29;;;;;;;;;;;15.50;99.90;;;;;;8299765;28;19913;-65
2021/09/08 21:16:29;;;;;;;;;;;15.50;99.90;;;;;;8281495;28;19955;-65
2021/09/08 21:20:29;;;;;;;;;;;15.30;99.90;;;;;;8299458;28;19909;-65
2021/09/08 21:24:30;;;;;;;;;;;15.40;99.90;;;;;;8299300;28;19913;-65
2021/09/08 21:28:30;;;;;;;;;;;15.60;99.90;;;;;;8281964;28;19905;-65
2021/09/08 21:32:31;;;;;;;;;;;15.40;99.90;;;;;;8299224;28;19913;-65
2021/09/08 21:36:31;;;;;;;;;;;15.60;99.90;;;;;;8298849;28;20297;-65
2021/09/08 21:40:33;;;;;;;;;;;15.40;99.90;;;;;;8299147;28;20397;-65
2021/09/08 21:44:33;;;;;;;;;;;15.20;99.90;;;;;;8298542;28;19906;-65
2021/09/08 21:48:34;;;;;;;;;;;15.10;99.90;;;;;;8298249;28;19967;-65
2021/09/08 21:52:35;;;;;;;;;;;15.20;99.90;;;;;;8297744;28;19913;-65
2021/09/08 21:56:35;;;;;;;;;;;14.90;99.90;;;;;;8280382;28;19909;-65
2021/09/08 22:00:36;;;;;;;;;;;14.60;99.90;;;;;;8296942;28;19921;-65
2021/09/08 22:04:36;;;;;;;;;;;14.80;99.90;;;;;;8280295;28;19910;-65
2021/09/08 22:08:37;;;;;;;;;;;14.70;99.90;;;;;;8298066;28;19906;-65
2021/09/08 22:12:37;;;;;;;;;;;14.60;99.90;;;;;;8297754;28;19917;-65
2021/09/08 22:16:38;;;;;;;;;;;14.30;99.90;;;;;;8296116;28;19921;-65
2021/09/08 22:20:38;;;;;;;;;;;14.30;99.90;;;;;;8296665;28;19949;-64
2021/09/08 22:24:39;;;;;;;;;;;14.50;99.90;;;;;;8295950;28;20445;-65
2021/09/08 22:28:39;;;;;;;;;;;14.60;99.90;;;;;;8297001;28;20396;-65
2021/09/08 22:32:40;;;;;;;;;;;14.60;99.90;;;;;;8296030;28;19909;-64
2021/09/08 22:36:41;;;;;;;;;;;14.40;99.90;;;;;;8294085;28;19979;-65
2021/09/08 22:40:42;;;;;;;;;;;14.50;99.90;;;;;;8294262;28;19995;-65
2021/09/08 22:44:43;;;;;;;;;;;14.30;99.90;;;;;;8294057;28;19959;-65
2021/09/08 22:48:43;;;;;;;;;;;14.20;99.90;;;;;;8295044;28;19952;-65
2021/09/08 22:52:44;;;;;;;;;;;14.20;99.90;;;;;;8295983;28;19917;-65
2021/09/08 22:56:44;;;;;;;;;;;14.50;99.90;;;;;;8296125;28;20373;-64
2021/09/08 23:00:45;;;;;;;;;;;14.30;99.90;;;;;;8296235;28;20401;-65
2021/09/08 23:04:45;;;;;;;;;;;14.20;99.90;;;;;;8295903;28;19916;-65
2021/09/08 23:08:45;;;;;;;;;;;14.10;99.90;;;;;;8278569;28;19906;-64
2021/09/08 23:12:46;;;;;;;;;;;14.10;99.90;;;;;;8295318;28;19920;-65
2021/09/08 23:16:46;;;;;;;;;;;13.90;99.90;;;;;;8295470;28;19980;-64
2021/09/08 23:20:47;;;;;;;;;;;13.90;99.90;;;;;;8295540;28;19971;-64
2021/09/08 23:24:47;;;;;;;;;;;13.90;99.90;;;;;;8294736;28;19912;-64
2021/09/08 23:28:48;;;;;;;;;;;13.90;99.90;;;;;;8294927;28;19905;-65
2021/09/08 23:32:49;;;;;;;;;;;13.70;99.90;;;;;;8295292;28;19912;-65
2021/09/08 23:36:49;;;;;;;;;;;13.70;99.90;;;;;;8294860;28;20058;-65